Time;durP1;ratioP1;P1;durP2;ratioP2;P2;SDS_P1;SDS_P2;PMS_P1;PMS_P2;Temp;Humidity;BMP_temperature;BMP_pressure;BME280_temperature;BME280_humidity;BME280_pressure;Samples;Min_cycle;Max_cycle;Signal;HPM_P1;HPM_P2
2022/09/07 00:02:09;;;;;;;4.13;3.75;;;;;;;;;;12478625;28;20036;-75
2022/09/07 00:08:11;;;;;;;5.38;5.00;;;;;;;;;;12495797;28;20041;-75
2022/09/07 00:14:13;;;;;;;3.85;3.55;;;;;;;;;;12495230;28;20068;-75
2022/09/07 00:20:14;;;;;;;;;;;;;;;;;;12496053;28;20044;-75
2022/09/07 00:26:18;;;;;;;3.20;3.00;;;;;;;;;;12460719;28;19909;-74
2022/09/07 00:32:19;;;;;;;3.95;3.65;;;;;;;;;;12494343;28;20045;-75
2022/09/07 00:38:21;;;;;;;3.67;3.40;;;;;;;;;;12476788;28;20041;-75
2022/09/07 00:44:41;;;;;;;4.65;4.25;;;;;;;;;;12477072;28;20037;-75
2022/09/07 00:50:46;;;;;;;4.32;3.72;;;;;;;;;;12476267;28;20041;-75
2022/09/07 00:56:49;;;;;;;4.20;3.80;;;;;;;;;;12494080;28;20038;-75
2022/09/07 01:02:53;;;;;;;4.05;3.72;;;;;;;;;;12502594;28;20033;-74
2022/09/07 01:08:59;;;;;;;3.72;3.53;;;;;;;;;;12503872;28;20530;-75
2022/09/07 01:15:00;;;;;;;4.35;4.00;;;;;;;;;;12486067;28;20495;-75
2022/09/07 01:21:18;;;;;;;5.55;4.97;;;;;;;;;;12503679;28;20033;-75
2022/09/07 01:27:46;;;;;;;4.10;3.80;;;;;;;;;;12503444;28;20041;-74
2022/09/07 01:34:00;;;;;;;4.47;4.07;;;;;;;;;;12448535;28;20053;-74
2022/09/07 01:40:03;;;;;;;4.25;3.95;;;;;;;;;;12485982;28;20046;-74
2022/09/07 01:46:07;;;;;;;4.70;4.30;;;;;;;;;;12502277;28;20044;-74
2022/09/07 01:52:18;;;;;;;3.80;3.50;;;;;;;;;;12484231;28;20306;-74
2022/09/07 01:58:29;;;;;;;4.03;3.78;;;;;;;;;;12501789;28;20476;-75
2022/09/07 02:04:34;;;;;;;5.20;3.67;;;;;;;;;;12483889;28;20033;-75
2022/09/07 02:10:38;;;;;;;4.60;4.28;;;;;;;;;;12499391;28;20053;-75
2022/09/07 02:16:44;;;;;;;3.92;3.63;;;;;;;;;;12483422;28;20041;-75
2022/09/07 02:22:48;;;;;;;4.47;4.07;;;;;;;;;;12500501;28;20495;-75
2022/09/07 02:28:51;;;;;;;4.10;3.80;;;;;;;;;;12482708;28;20132;-75
2022/09/07 02:34:52;;;;;;;;;;;;;;;;;;12482677;28;20048;-75
2022/09/07 02:40:55;;;;;;;5.43;4.83;;;;;;;;;;12482745;28;19909;-74
2022/09/07 02:47:13;;;;;;;4.40;4.10;;;;;;;;;;12481498;28;20034;-75
2022/09/07 02:53:21;;;;;;;5.07;4.68;;;;;;;;;;12499253;28;20514;-75
2022/09/07 02:59:29;;;;;;;7.10;6.45;;;;;;;;;;12498628;28;20048;-75
2022/09/07 03:05:34;;;;;;;7.80;7.10;;;;;;;;;;12498825;28;20040;-75
2022/09/07 03:11:36;;;;;;;5.00;4.50;;;;;;;;;;12480344;28;20054;-75
2022/09/07 03:17:38;;;;;;;5.05;4.65;;;;;;;;;;12498002;28;20029;-75
2022/09/07 03:23:40;;;;;;;3.67;3.38;;;;;;;;;;12497188;28;20038;-75
2022/09/07 03:29:42;;;;;;;2.90;2.70;;;;;;;;;;12496425;28;20033;-75
2022/09/07 03:35:44;;;;;;;2.58;2.03;;;;;;;;;;12478018;28;20033;-75
2022/09/07 03:41:46;;;;;;;1.77;1.67;;;;;;;;;;12496195;28;20033;-75
2022/09/07 03:47:49;;;;;;;1.75;1.65;;;;;;;;;;12494008;28;20029;-75
2022/09/07 03:53:51;;;;;;;1.70;1.60;;;;;;;;;;12493873;28;20544;-75
2022/09/07 03:59:53;;;;;;;1.80;1.70;;;;;;;;;;12493897;28;20034;-75
2022/09/07 04:05:56;;;;;;;2.55;2.45;;;;;;;;;;12495402;28;20475;-75
2022/09/07 04:11:57;;;;;;;3.60;3.00;;;;;;;;;;12496207;28;20052;-75
2022/09/07 04:18:00;;;;;;;3.60;3.30;;;;;;;;;;12495110;28;20044;-75
2022/09/07 04:24:02;;;;;;;3.30;3.00;;;;;;;;;;12495576;28;20056;-74
2022/09/07 04:30:04;;;;;;;1.58;1.48;;;;;;;;;;12477073;28;20137;-74
2022/09/07 04:36:06;;;;;;;1.88;1.77;;;;;;;;;;12476674;28;20041;-74
2022/09/07 04:42:07;;;;;;;;;;;;;;;;;;12477861;28;20048;-74
2022/09/07 04:48:09;;;;;;;3.88;2.55;;;;;;;;;;12494956;28;19913;-73
2022/09/07 04:54:11;;;;;;;2.65;2.45;;;;;;;;;;12477000;28;20044;-74
2022/09/07 05:00:13;;;;;;;2.85;2.58;;;;;;;;;;12494111;28;20048;-74
2022/09/07 05:06:16;;;;;;;1.55;1.45;;;;;;;;;;12476520;28;20034;-74
2022/09/07 05:12:18;;;;;;;1.60;1.50;;;;;;;;;;12493283;28;20116;-74
2022/09/07 05:18:20;;;;;;;1.23;1.23;;;;;;;;;;12476197;28;20030;-74
2022/09/07 05:24:22;;;;;;;1.73;1.33;;;;;;;;;;12494082;28;20033;-75
2022/09/07 05:30:24;;;;;;;2.78;2.35;;;;;;;;;;12493417;28;20040;-75
2022/09/07 05:36:26;;;;;;;2.30;2.20;;;;;;;;;;12494085;28;20045;-74
2022/09/07 05:42:28;;;;;;;3.05;2.85;;;;;;;;;;12552268;28;20051;-75
2022/09/07 05:48:30;;;;;;;2.63;2.42;;;;;;;;;;12598392;28;20033;-75
2022/09/07 05:54:32;;;;;;;2.72;2.53;;;;;;;;;;12548355;28;20398;-75
2022/09/07 06:00:35;;;;;;;2.38;2.28;;;;;;;;;;12551217;28;20509;-75
2022/09/07 06:06:37;;;;;;;2.38;2.17;;;;;;;;;;12550551;28;20033;-75
2022/09/07 06:12:39;;;;;;;2.75;1.92;;;;;;;;;;12532041;28;20418;-74
2022/09/07 06:18:42;;;;;;;3.22;2.83;;;;;;;;;;12532354;28;20029;-75
2022/09/07 06:24:44;;;;;;;3.50;3.30;;;;;;;;;;12549667;28;20040;-75
2022/09/07 06:30:46;;;;;;;4.05;3.33;;;;;;;;;;12531825;28;20032;-74
2022/09/07 06:36:47;;;;;;;3.53;3.22;;;;;;;;;;12549140;28;20044;-75
2022/09/07 06:42:49;;;;;;;2.90;2.78;;;;;;;;;;12531805;28;20040;-76
2022/09/07 06:48:51;;;;;;;;;;;;;;;;;;12531522;28;20041;-75
2022/09/07 06:54:52;;;;;;;3.40;3.10;;;;;;;;;;12548255;28;19921;-74
2022/09/07 07:00:54;;;;;;;3.60;3.40;;;;;;;;;;12547644;28;20037;-74
2022/09/07 07:06:56;;;;;;;3.92;3.17;;;;;;;;;;12548133;28;20036;-74
2022/09/07 07:12:57;;;;;;;3.25;2.88;;;;;;;;;;12529816;28;20057;-75
2022/09/07 07:18:59;;;;;;;;;;;;;;;;;;12547982;28;20040;-74
2022/09/07 07:25:01;;;;;;;2.58;2.38;;;;;;;;;;12529311;28;19916;-75
2022/09/07 07:31:04;;;;;;;2.80;2.60;;;;;;;;;;12547515;28;20045;-74
2022/09/07 07:37:06;;;;;;;2.95;2.67;;;;;;;;;;12513136;28;20036;-76
2022/09/07 07:43:07;;;;;;;;;;;;;;;;;;12529660;28;20390;-75
2022/09/07 07:49:09;;;;;;;2.43;2.30;;;;;;;;;;12546084;28;19912;-74
2022/09/07 07:55:11;;;;;;;2.60;2.40;;;;;;;;;;12545540;28;20041;-75
2022/09/07 08:01:14;;;;;;;2.75;2.47;;;;;;;;;;12545900;28;20028;-75
2022/09/07 08:07:16;;;;;;;2.30;2.20;;;;;;;;;;12527688;28;20029;-75
2022/09/07 08:13:18;;;;;;;2.15;2.05;;;;;;;;;;12527072;28;20056;-76
2022/09/07 08:19:20;;;;;;;2.45;2.25;;;;;;;;;;12544634;28;20025;-75
2022/09/07 08:25:22;;;;;;;2.17;1.98;;;;;;;;;;12545106;28;20040;-74
2022/09/07 08:31:23;;;;;;;;;;;;;;;;;;12510349;28;20048;-74
2022/09/07 08:37:25;;;;;;;2.90;2.60;;;;;;;;;;12544616;28;19909;-74
2022/09/07 08:43:39;;;;;;;2.97;2.78;;;;;;;;;;12545399;28;20033;-74
2022/09/07 08:49:48;;;;;;;3.53;3.22;;;;;;;;;;12543703;28;20033;-75
2022/09/07 08:56:05;;;;;;;4.22;3.70;;;;;;;;;;12543792;28;20406;-75
2022/09/07 09:02:15;;;;;;;4.18;3.88;;;;;;;;;;12509499;28;20041;-75
2022/09/07 09:08:17;;;;;;;4.20;3.78;;;;;;;;;;12524952;28;20048;-75
2022/09/07 09:14:19;;;;;;;3.70;3.50;;;;;;;;;;12525241;28;20045;-75
2022/09/07 09:20:20;;;;;;;;;;;;;;;;;;12528794;28;20037;-76
2022/09/07 09:26:23;;;;;;;3.37;3.07;;;;;;;;;;12517463;28;19913;-75
2022/09/07 09:32:33;;;;;;;3.08;2.85;;;;;;;;;;12552459;28;20045;-74
2022/09/07 09:38:34;;;;;;;2.75;2.55;;;;;;;;;;12533095;28;20037;-75
2022/09/07 09:44:37;;;;;;;3.15;2.85;;;;;;;;;;12533535;28;20407;-75
2022/09/07 09:50:41;;;;;;;2.30;2.17;;;;;;;;;;12533092;28;20060;-75
2022/09/07 09:56:43;;;;;;;2.20;2.00;;;;;;;;;;12533013;28;20395;-75
2022/09/07 10:03:03;;;;;;;3.25;2.20;;;;;;;;;;12531670;28;20047;-76
2022/09/07 10:09:05;;;;;;;2.78;2.58;;;;;;;;;;12548473;28;20064;-75
2022/09/07 10:15:23;;;;;;;1.90;1.80;;;;;;;;;;12548892;28;20507;-75
2022/09/07 10:21:32;;;;;;;2.15;1.95;;;;;;;;;;12527299;28;20060;-75
2022/09/07 10:27:35;;;;;;;2.17;2.00;;;;;;;;;;12510705;28;20052;-75
2022/09/07 10:33:50;;;;;;;1.92;1.83;;;;;;;;;;12527980;28;20379;-75
2022/09/07 10:40:19;;;;;;;1.63;1.52;;;;;;;;;;12547511;28;20036;-75
2022/09/07 10:46:44;;;;;;;1.70;1.58;;;;;;;;;;12526411;28;20052;-75
2022/09/07 10:53:09;;;;;;;2.47;1.80;;;;;;;;;;12536148;28;20513;-75
2022/09/07 10:59:20;;;;;;;1.60;1.50;;;;;;;;;;12518565;28;20052;-75
2022/09/07 11:05:28;;;;;;;1.52;1.42;;;;;;;;;;12528391;28;20029;-74
2022/09/07 11:11:35;;;;;;;2.10;1.90;;;;;;;;;;12545952;28;20051;-74
2022/09/07 11:17:49;;;;;;;2.70;1.92;;;;;;;;;;12527577;28;20041;-74
2022/09/07 11:24:08;;;;;;;1.50;1.40;;;;;;;;;;12545971;28;20371;-75
2022/09/07 11:30:18;;;;;;;1.67;1.52;;;;;;;;;;12544746;28;20519;-75
2022/09/07 11:36:21;;;;;;;1.13;1.07;;;;;;;;;;12544561;28;20080;-75
2022/09/07 11:42:26;;;;;;;1.60;1.35;;;;;;;;;;12527034;28;20386;-75
2022/09/07 11:48:34;;;;;;;2.05;1.45;;;;;;;;;;12527562;28;20025;-75
2022/09/07 11:54:39;;;;;;;1.70;1.45;;;;;;;;;;12543880;28;20047;-75
2022/09/07 12:00:41;;;;;;;3.08;1.73;;;;;;;;;;12543479;28;20033;-75
2022/09/07 12:07:01;;;;;;;13.70;4.43;;;;;;;;;;12526496;28;20052;-75
2022/09/07 12:13:12;;;;;;;5.35;2.35;;;;;;;;;;12544133;28;20059;-75
2022/09/07 12:19:18;;;;;;;3.80;2.08;;;;;;;;;;12544650;28;20041;-74
2022/09/07 12:25:20;;;;;;;4.53;1.98;;;;;;;;;;12543173;28;20044;-75
2022/09/07 12:31:40;;;;;;;3.75;1.40;;;;;;;;;;12509893;28;20040;-75
2022/09/07 12:37:43;;;;;;;1.35;1.10;;;;;;;;;;12526374;28;20043;-75
2022/09/07 12:43:47;;;;;;;1.13;1.13;;;;;;;;;;12545392;28;20108;-75
2022/09/07 12:49:55;;;;;;;1.15;1.10;;;;;;;;;;12525691;28;20044;-75
2022/09/07 12:55:59;;;;;;;2.42;1.15;;;;;;;;;;12542687;28;20491;-75
2022/09/07 13:02:20;;;;;;;1.27;0.95;;;;;;;;;;12525909;28;20479;-75
2022/09/07 13:08:31;;;;;;;1.30;1.20;;;;;;;;;;12525467;28;20052;-75
2022/09/07 13:14:36;;;;;;;1.00;1.00;;;;;;;;;;12525369;28;20044;-74
2022/09/07 13:20:38;;;;;;;1.23;1.05;;;;;;;;;;12509477;28;20032;-75
2022/09/07 13:26:58;;;;;;;2.65;1.30;;;;;;;;;;12542738;28;20037;-75
2022/09/07 13:33:23;;;;;;;2.67;0.90;;;;;;;;;;12524795;28;20052;-75
2022/09/07 13:39:25;;;;;;;1.02;0.77;;;;;;;;;;12480257;28;20060;-74
2022/09/07 13:45:36;;;;;;;1.02;1.00;;;;;;;;;;12542579;28;20037;-74
2022/09/07 13:51:42;;;;;;;1.25;0.82;;;;;;;;;;12542567;28;20052;-74
2022/09/07 13:57:59;;;;;;;1.10;0.93;;;;;;;;;;12525241;28;20060;-75
2022/09/07 14:04:06;;;;;;;2.38;1.10;;;;;;;;;;12524908;28;20036;-75
2022/09/07 14:10:18;;;;;;;1.80;0.80;;;;;;;;;;12550339;28;20049;-75
2022/09/07 14:16:20;;;;;;;0.82;0.82;;;;;;;;;;12550641;28;20049;-75
2022/09/07 14:22:22;;;;;;;2.13;1.20;;;;;;;;;;12550164;28;20479;-75
2022/09/07 14:28:31;;;;;;;1.38;0.82;;;;;;;;;;12550112;28;20406;-75
2022/09/07 14:34:37;;;;;;;1.45;1.02;;;;;;;;;;12531758;28;20176;-75
2022/09/07 14:40:38;;;;;;;2.35;0.98;;;;;;;;;;12532424;28;20484;-75
2022/09/07 14:46:46;;;;;;;1.38;0.93;;;;;;;;;;12531761;28;20037;-75
2022/09/07 14:52:49;;;;;;;1.45;0.95;;;;;;;;;;12530880;28;20045;-75
2022/09/07 14:58:51;;;;;;;1.67;0.80;;;;;;;;;;12548352;28;20025;-75
2022/09/07 15:05:12;;;;;;;1.23;0.93;;;;;;;;;;12548256;28;20045;-75
2022/09/07 15:11:21;;;;;;;3.67;1.13;;;;;;;;;;12548252;28;20049;-74
2022/09/07 15:17:24;;;;;;;0.70;0.70;;;;;;;;;;12547737;28;20049;-75
2022/09/07 15:23:48;;;;;;;1.15;0.75;;;;;;;;;;12548280;28;20497;-75
2022/09/07 15:29:49;;;;;;;2.83;1.00;;;;;;;;;;12529933;28;20047;-75
2022/09/07 15:35:52;;;;;;;0.70;0.70;;;;;;;;;;12546947;28;20037;-75
2022/09/07 15:41:54;;;;;;;1.30;0.70;;;;;;;;;;12547668;28;20040;-76
2022/09/07 15:47:55;;;;;;;0.82;0.70;;;;;;;;;;12528372;28;20052;-76
2022/09/07 15:53:59;;;;;;;1.10;0.60;;;;;;;;;;12528067;28;20059;-75
2022/09/07 16:00:01;;;;;;;1.60;0.68;;;;;;;;;;12545545;28;20032;-75
2022/09/07 16:06:33;;;;;;;0.80;0.80;;;;;;;;;;12545182;28;20045;-75
2022/09/07 16:12:35;;;;;;;1.15;0.90;;;;;;;;;;12545530;28;20057;-75
2022/09/07 16:18:37;;;;;;;0.88;0.55;;;;;;;;;;12544876;28;20044;-75
2022/09/07 16:24:39;;;;;;;1.65;0.93;;;;;;;;;;12545430;28;20052;-75
2022/09/07 16:30:41;;;;;;;0.63;0.60;;;;;;;;;;12509205;28;20040;-75
2022/09/07 16:36:42;;;;;;;0.93;0.90;;;;;;;;;;12526377;28;20045;-75
2022/09/07 16:42:46;;;;;;;0.82;0.60;;;;;;;;;;12526748;28;20028;-74
2022/09/07 16:48:48;;;;;;;1.15;0.60;;;;;;;;;;12526201;28;20047;-76
2022/09/07 16:54:50;;;;;;;1.20;0.73;;;;;;;;;;12544175;28;20513;-75
2022/09/07 17:00:52;;;;;;;0.82;0.77;;;;;;;;;;12543394;28;20048;-75
2022/09/07 17:06:53;;;;;;;1.88;0.90;;;;;;;;;;12543499;28;20044;-75
2022/09/07 17:12:55;;;;;;;1.95;0.90;;;;;;;;;;12527498;28;20085;-75
2022/09/07 17:18:58;;;;;;;1.70;0.90;;;;;;;;;;12526669;28;20044;-74
2022/09/07 17:25:00;;;;;;;0.70;0.70;;;;;;;;;;12525433;28;20044;-74
2022/09/07 17:31:09;;;;;;;0.90;0.77;;;;;;;;;;12509110;28;20033;-74
2022/09/07 17:37:11;;;;;;;1.70;1.00;;;;;;;;;;12508727;28;20044;-75
2022/09/07 17:43:13;;;;;;;1.70;1.10;;;;;;;;;;12549874;28;20374;-74
2022/09/07 17:49:15;;;;;;;1.75;0.82;;;;;;;;;;12552210;28;20033;-75
2022/09/07 17:55:16;;;;;;;1.83;0.93;;;;;;;;;;12534851;28;20055;-75
2022/09/07 18:01:19;;;;;;;1.10;1.10;;;;;;;;;;12551874;28;20025;-74
2022/09/07 18:07:20;;;;;;;1.25;1.10;;;;;;;;;;12533335;28;20036;-74
2022/09/07 18:13:22;;;;;;;1.38;1.25;;;;;;;;;;12551051;28;20048;-75
2022/09/07 18:19:24;;;;;;;1.88;1.33;;;;;;;;;;12550508;28;20037;-75
2022/09/07 18:25:26;;;;;;;1.52;1.17;;;;;;;;;;12516132;28;20037;-75
2022/09/07 18:31:29;;;;;;;1.58;0.93;;;;;;;;;;12532198;28;20052;-77
2022/09/07 18:37:31;;;;;;;1.35;1.23;;;;;;;;;;12532375;28;20040;-76
2022/09/07 18:43:33;;;;;;;1.50;1.40;;;;;;;;;;12532775;28;20402;-75
2022/09/07 18:49:35;;;;;;;1.42;1.33;;;;;;;;;;12549317;28;20506;-75
2022/09/07 18:55:37;;;;;;;1.42;1.33;;;;;;;;;;12548743;28;20418;-75
2022/09/07 19:01:39;;;;;;;1.40;1.30;;;;;;;;;;12548368;28;20483;-75
2022/09/07 19:07:40;;;;;;;1.30;1.20;;;;;;;;;;12530783;28;20021;-75
2022/09/07 19:13:42;;;;;;;2.00;1.30;;;;;;;;;;12530223;28;20071;-76
2022/09/07 19:19:44;;;;;;;1.85;1.55;;;;;;;;;;12547733;28;20410;-75
2022/09/07 19:25:46;;;;;;;1.75;1.58;;;;;;;;;;12530045;28;20041;-74
2022/09/07 19:32:10;;;;;;;1.67;1.58;;;;;;;;;;12547195;28;20405;-74
2022/09/07 19:38:14;;;;;;;1.63;1.50;;;;;;;;;;12512933;28;20021;-76
2022/09/07 19:44:16;;;;;;;1.73;1.60;;;;;;;;;;12529206;28;20037;-75
2022/09/07 19:50:19;;;;;;;;;;;;;;;;;;12547633;28;20036;-75
2022/09/07 19:56:21;;;;;;;1.40;1.30;;;;;;;;;;12546372;28;20298;-74
2022/09/07 20:02:23;;;;;;;2.05;1.60;;;;;;;;;;12546048;28;20364;-75
2022/09/07 20:08:24;;;;;;;1.27;1.17;;;;;;;;;;12527057;28;20059;-75
2022/09/07 20:14:26;;;;;;;;;;;;;;;;;;12545802;28;20044;-75
2022/09/07 20:20:28;;;;;;;2.23;2.00;;;;;;;;;;12545195;28;19916;-75
2022/09/07 20:26:31;;;;;;;;;;;;;;;;;;12545078;28;20264;-75
2022/09/07 20:32:33;;;;;;;1.90;1.70;;;;;;;;;;12526877;28;19917;-76
2022/09/07 20:38:42;;;;;;;1.52;1.42;;;;;;;;;;12510006;28;20033;-74
2022/09/07 20:44:43;;;;;;;2.47;1.80;;;;;;;;;;12526894;28;20233;-74
2022/09/07 20:50:45;;;;;;;;;;;;;;;;;;12527326;28;20033;-75
2022/09/07 20:56:47;;;;;;;2.22;1.90;;;;;;;;;;12509428;28;19916;-76
2022/09/07 21:02:48;;;;;;;1.80;1.70;;;;;;;;;;12543705;28;20033;-75
2022/09/07 21:08:50;;;;;;;;;;;;;;;;;;12526253;28;20059;-75
2022/09/07 21:14:52;;;;;;;2.00;1.50;;;;;;;;;;12509298;28;19920;-75
2022/09/07 21:20:54;;;;;;;;;;;;;;;;;;12554639;28;20506;-75
2022/09/07 21:26:56;;;;;;;2.30;2.00;;;;;;;;;;12535385;28;20263;-75
2022/09/07 21:32:57;;;;;;;;;;;;;;;;;;12535921;28;20041;-75
2022/09/07 21:38:59;;;;;;;1.98;1.88;;;;;;;;;;12535208;28;19908;-75
2022/09/07 21:45:01;;;;;;;;;;;;;;;;;;12534757;28;20044;-75
2022/09/07 21:51:03;;;;;;;2.73;1.83;;;;;;;;;;12518134;28;19916;-75
2022/09/07 21:57:05;;;;;;;1.65;1.55;;;;;;;;;;12552376;28;20299;-75
2022/09/07 22:03:06;;;;;;;2.35;2.25;;;;;;;;;;12551508;28;20036;-75
2022/09/07 22:09:08;;;;;;;;;;;;;;;;;;12534031;28;20056;-77
2022/09/07 22:15:10;;;;;;;2.47;1.83;;;;;;;;;;12532923;28;20283;-74
2022/09/07 22:21:11;;;;;;;;;;;;;;;;;;12551298;28;20764;-75
2022/09/07 22:27:13;;;;;;;2.50;2.30;;;;;;;;;;12532637;28;19916;-74
2022/09/07 22:33:15;;;;;;;;;;;;;;;;;;12532732;28;20045;-75
2022/09/07 22:39:17;;;;;;;1.73;1.63;;;;;;;;;;12532470;28;19908;-75
2022/09/07 22:45:19;;;;;;;2.40;2.25;;;;;;;;;;12550111;28;20033;-74
2022/09/07 22:51:21;;;;;;;;;;;;;;;;;;12549842;28;20471;-75
2022/09/07 22:57:23;;;;;;;3.03;2.80;;;;;;;;;;12531983;28;19917;-75
2022/09/07 23:03:25;;;;;;;;;;;;;;;;;;12549229;28;20033;-74
2022/09/07 23:09:26;;;;;;;2.70;2.50;;;;;;;;;;12548511;28;20039;-75
2022/09/07 23:15:28;;;;;;;;;;;;;;;;;;12549013;28;20044;-75
2022/09/07 23:21:30;;;;;;;3.50;3.00;;;;;;;;;;12530293;28;19931;-75
2022/09/07 23:27:31;;;;;;;3.08;2.78;;;;;;;;;;12513942;28;20029;-75
2022/09/07 23:33:33;;;;;;;4.57;4.28;;;;;;;;;;12529356;28;20041;-75
2022/09/07 23:39:35;;;;;;;5.10;4.70;;;;;;;;;;12546955;28;20044;-75
2022/09/07 23:45:36;;;;;;;5.25;4.75;;;;;;;;;;12547717;28;20045;-75
2022/09/07 23:51:38;;;;;;;3.63;3.33;;;;;;;;;;12546522;28;20033;-75
2022/09/07 23:57:40;;;;;;;5.18;4.68;;;;;;;;;;12546825;28;20511;-75
